sensor_id;sensor_type;location;lat;lon;timestamp;P1;durP1;ratioP1;P2;durP2;ratioP2
12469;SDS011;36499;46.484;13.832;2023-02-24T00:01:47;37.77;;;20.00;;
12469;SDS011;36499;46.484;13.832;2023-02-24T00:04:16;35.83;;;20.33;;
12469;SDS011;36499;46.484;13.832;2023-02-24T00:06:46;34.63;;;19.80;;
12469;SDS011;36499;46.484;13.832;2023-02-24T00:09:14;34.20;;;18.57;;
12469;SDS011;36499;46.484;13.832;2023-02-24T00:11:44;35.03;;;19.73;;
12469;SDS011;36499;46.484;13.832;2023-02-24T00:14:18;37.00;;;19.53;;
12469;SDS011;36499;46.484;13.832;2023-02-24T00:16:46;31.67;;;19.03;;
12469;SDS011;36499;46.484;13.832;2023-02-24T00:19:14;40.67;;;20.80;;
12469;SDS011;36499;46.484;13.832;2023-02-24T00:21:44;34.93;;;20.00;;
12469;SDS011;36499;46.484;13.832;2023-02-24T00:24:12;37.50;;;21.10;;
12469;SDS011;36499;46.484;13.832;2023-02-24T00:26:40;36.83;;;20.73;;
12469;SDS011;36499;46.484;13.832;2023-02-24T00:29:10;38.07;;;21.90;;
12469;SDS011;36499;46.484;13.832;2023-02-24T00:31:38;33.43;;;18.93;;
12469;SDS011;36499;46.484;13.832;2023-02-24T00:34:07;35.23;;;20.83;;
12469;SDS011;36499;46.484;13.832;2023-02-24T00:36:36;36.97;;;20.27;;
12469;SDS011;36499;46.484;13.832;2023-02-24T00:39:05;34.73;;;19.23;;
12469;SDS011;36499;46.484;13.832;2023-02-24T00:41:34;35.80;;;20.33;;
12469;SDS011;36499;46.484;13.832;2023-02-24T00:44:05;42.50;;;21.13;;
12469;SDS011;36499;46.484;13.832;2023-02-24T00:46:36;37.73;;;20.60;;
12469;SDS011;36499;46.484;13.832;2023-02-24T00:49:06;38.60;;;21.60;;
12469;SDS011;36499;46.484;13.832;2023-02-24T00:51:41;32.20;;;19.33;;
12469;SDS011;36499;46.484;13.832;2023-02-24T00:54:10;33.73;;;18.40;;
12469;SDS011;36499;46.484;13.832;2023-02-24T00:56:40;35.37;;;20.17;;
12469;SDS011;36499;46.484;13.832;2023-02-24T00:59:08;35.33;;;19.20;;
12469;SDS011;36499;46.484;13.832;2023-02-24T01:01:39;34.50;;;19.07;;
12469;SDS011;36499;46.484;13.832;2023-02-24T01:04:09;37.13;;;18.73;;
12469;SDS011;36499;46.484;13.832;2023-02-24T01:06:39;37.00;;;18.57;;
12469;SDS011;36499;46.484;13.832;2023-02-24T01:09:10;36.77;;;19.40;;
12469;SDS011;36499;46.484;13.832;2023-02-24T01:11:40;36.97;;;18.80;;
12469;SDS011;36499;46.484;13.832;2023-02-24T01:14:47;37.43;;;19.27;;
12469;SDS011;36499;46.484;13.832;2023-02-24T01:17:18;28.97;;;17.10;;
12469;SDS011;36499;46.484;13.832;2023-02-24T01:19:47;33.80;;;18.20;;
12469;SDS011;36499;46.484;13.832;2023-02-24T01:22:14;28.20;;;17.50;;
12469;SDS011;36499;46.484;13.832;2023-02-24T01:24:44;29.80;;;16.87;;
12469;SDS011;36499;46.484;13.832;2023-02-24T01:27:13;33.63;;;18.60;;
12469;SDS011;36499;46.484;13.832;2023-02-24T01:29:43;31.13;;;17.87;;
12469;SDS011;36499;46.484;13.832;2023-02-24T01:32:12;35.03;;;18.50;;
12469;SDS011;36499;46.484;13.832;2023-02-24T01:34:44;31.40;;;17.93;;
12469;SDS011;36499;46.484;13.832;2023-02-24T01:37:11;32.53;;;17.50;;
12469;SDS011;36499;46.484;13.832;2023-02-24T01:39:41;32.00;;;17.17;;
12469;SDS011;36499;46.484;13.832;2023-02-24T01:42:10;31.40;;;18.37;;
12469;SDS011;36499;46.484;13.832;2023-02-24T01:47:41;35.23;;;17.97;;
12469;SDS011;36499;46.484;13.832;2023-02-24T01:50:13;35.87;;;18.33;;
12469;SDS011;36499;46.484;13.832;2023-02-24T01:52:45;30.30;;;17.00;;
12469;SDS011;36499;46.484;13.832;2023-02-24T01:55:17;38.10;;;18.97;;
12469;SDS011;36499;46.484;13.832;2023-02-24T01:57:49;30.73;;;17.07;;
12469;SDS011;36499;46.484;13.832;2023-02-24T02:00:19;27.40;;;16.13;;
12469;SDS011;36499;46.484;13.832;2023-02-24T02:03:03;29.67;;;17.07;;
12469;SDS011;36499;46.484;13.832;2023-02-24T02:05:37;30.87;;;16.10;;
12469;SDS011;36499;46.484;13.832;2023-02-24T02:08:09;36.27;;;18.10;;
12469;SDS011;36499;46.484;13.832;2023-02-24T02:10:39;37.03;;;18.00;;
12469;SDS011;36499;46.484;13.832;2023-02-24T02:13:09;33.50;;;17.90;;
12469;SDS011;36499;46.484;13.832;2023-02-24T02:15:42;35.17;;;18.33;;
12469;SDS011;36499;46.484;13.832;2023-02-24T02:18:23;34.90;;;18.70;;
12469;SDS011;36499;46.484;13.832;2023-02-24T02:21:11;32.23;;;17.93;;
12469;SDS011;36499;46.484;13.832;2023-02-24T02:24:26;33.40;;;18.00;;
12469;SDS011;36499;46.484;13.832;2023-02-24T02:27:18;32.07;;;17.03;;
12469;SDS011;36499;46.484;13.832;2023-02-24T02:30:33;32.03;;;16.77;;
12469;SDS011;36499;46.484;13.832;2023-02-24T02:33:46;36.83;;;18.83;;
12469;SDS011;36499;46.484;13.832;2023-02-24T02:36:47;37.63;;;19.10;;
12469;SDS011;36499;46.484;13.832;2023-02-24T02:39:29;36.80;;;19.17;;
12469;SDS011;36499;46.484;13.832;2023-02-24T02:42:10;32.73;;;17.90;;
12469;SDS011;36499;46.484;13.832;2023-02-24T02:44:52;31.50;;;17.23;;
12469;SDS011;36499;46.484;13.832;2023-02-24T02:47:33;37.70;;;18.97;;
12469;SDS011;36499;46.484;13.832;2023-02-24T02:50:11;36.13;;;19.20;;
12469;SDS011;36499;46.484;13.832;2023-02-24T02:52:50;33.70;;;17.93;;
12469;SDS011;36499;46.484;13.832;2023-02-24T02:55:23;34.70;;;18.33;;
12469;SDS011;36499;46.484;13.832;2023-02-24T02:58:00;33.63;;;18.57;;
12469;SDS011;36499;46.484;13.832;2023-02-24T03:00:34;28.97;;;16.40;;
12469;SDS011;36499;46.484;13.832;2023-02-24T03:03:08;32.83;;;19.60;;
12469;SDS011;36499;46.484;13.832;2023-02-24T03:05:43;36.63;;;18.67;;
12469;SDS011;36499;46.484;13.832;2023-02-24T03:08:19;35.47;;;18.13;;
12469;SDS011;36499;46.484;13.832;2023-02-24T03:10:51;33.43;;;17.00;;
12469;SDS011;36499;46.484;13.832;2023-02-24T03:13:22;34.73;;;18.47;;
12469;SDS011;36499;46.484;13.832;2023-02-24T03:15:54;32.20;;;17.00;;
12469;SDS011;36499;46.484;13.832;2023-02-24T03:18:27;38.33;;;18.60;;
12469;SDS011;36499;46.484;13.832;2023-02-24T03:21:00;37.20;;;18.13;;
12469;SDS011;36499;46.484;13.832;2023-02-24T03:23:33;36.27;;;17.97;;
12469;SDS011;36499;46.484;13.832;2023-02-24T03:26:09;36.80;;;17.90;;
12469;SDS011;36499;46.484;13.832;2023-02-24T03:28:47;39.87;;;17.80;;
12469;SDS011;36499;46.484;13.832;2023-02-24T03:31:30;35.97;;;17.23;;
12469;SDS011;36499;46.484;13.832;2023-02-24T03:34:08;33.10;;;17.70;;
12469;SDS011;36499;46.484;13.832;2023-02-24T03:36:45;33.77;;;16.70;;
12469;SDS011;36499;46.484;13.832;2023-02-24T03:39:12;31.63;;;16.70;;
12469;SDS011;36499;46.484;13.832;2023-02-24T03:41:42;31.53;;;16.87;;
12469;SDS011;36499;46.484;13.832;2023-02-24T03:44:20;29.30;;;15.50;;
12469;SDS011;36499;46.484;13.832;2023-02-24T03:46:48;38.30;;;16.83;;
12469;SDS011;36499;46.484;13.832;2023-02-24T03:49:16;33.23;;;16.07;;
12469;SDS011;36499;46.484;13.832;2023-02-24T03:51:50;27.97;;;15.40;;
12469;SDS011;36499;46.484;13.832;2023-02-24T03:54:41;31.23;;;16.27;;
12469;SDS011;36499;46.484;13.832;2023-02-24T03:57:40;32.03;;;16.40;;
12469;SDS011;36499;46.484;13.832;2023-02-24T04:00:25;36.10;;;17.60;;
12469;SDS011;36499;46.484;13.832;2023-02-24T04:03:03;34.37;;;17.60;;
12469;SDS011;36499;46.484;13.832;2023-02-24T04:05:49;33.37;;;16.57;;
12469;SDS011;36499;46.484;13.832;2023-02-24T04:08:36;32.37;;;16.33;;
12469;SDS011;36499;46.484;13.832;2023-02-24T04:11:12;33.33;;;17.73;;
12469;SDS011;36499;46.484;13.832;2023-02-24T04:13:51;34.67;;;16.20;;
12469;SDS011;36499;46.484;13.832;2023-02-24T04:16:31;36.13;;;17.60;;
12469;SDS011;36499;46.484;13.832;2023-02-24T04:19:05;36.47;;;17.30;;
12469;SDS011;36499;46.484;13.832;2023-02-24T04:21:39;31.67;;;16.67;;
12469;SDS011;36499;46.484;13.832;2023-02-24T04:24:10;34.63;;;16.80;;
12469;SDS011;36499;46.484;13.832;2023-02-24T04:26:42;31.67;;;16.93;;
12469;SDS011;36499;46.484;13.832;2023-02-24T04:29:12;30.90;;;16.63;;
12469;SDS011;36499;46.484;13.832;2023-02-24T04:31:44;32.97;;;17.20;;
12469;SDS011;36499;46.484;13.832;2023-02-24T04:34:15;31.43;;;17.20;;
12469;SDS011;36499;46.484;13.832;2023-02-24T04:36:44;31.50;;;17.07;;
12469;SDS011;36499;46.484;13.832;2023-02-24T04:39:15;35.10;;;16.90;;
12469;SDS011;36499;46.484;13.832;2023-02-24T04:41:43;34.13;;;18.27;;
12469;SDS011;36499;46.484;13.832;2023-02-24T04:44:13;39.13;;;19.60;;
12469;SDS011;36499;46.484;13.832;2023-02-24T04:46:42;39.67;;;19.07;;
12469;SDS011;36499;46.484;13.832;2023-02-24T04:49:10;36.10;;;17.73;;
12469;SDS011;36499;46.484;13.832;2023-02-24T04:51:38;33.70;;;18.00;;
12469;SDS011;36499;46.484;13.832;2023-02-24T04:54:07;34.27;;;17.47;;
12469;SDS011;36499;46.484;13.832;2023-02-24T04:56:36;34.30;;;17.60;;
12469;SDS011;36499;46.484;13.832;2023-02-24T04:59:04;34.80;;;18.70;;
12469;SDS011;36499;46.484;13.832;2023-02-24T05:01:34;30.47;;;16.60;;
12469;SDS011;36499;46.484;13.832;2023-02-24T05:04:04;34.73;;;16.70;;
12469;SDS011;36499;46.484;13.832;2023-02-24T05:06:31;32.90;;;16.20;;
12469;SDS011;36499;46.484;13.832;2023-02-24T05:08:58;34.17;;;16.43;;
12469;SDS011;36499;46.484;13.832;2023-02-24T05:11:36;30.70;;;16.43;;
12469;SDS011;36499;46.484;13.832;2023-02-24T05:14:06;28.67;;;15.27;;
12469;SDS011;36499;46.484;13.832;2023-02-24T05:16:38;33.77;;;16.83;;
12469;SDS011;36499;46.484;13.832;2023-02-24T05:19:07;34.60;;;17.20;;
12469;SDS011;36499;46.484;13.832;2023-02-24T05:21:53;29.80;;;16.53;;
12469;SDS011;36499;46.484;13.832;2023-02-24T05:24:22;30.57;;;16.97;;
12469;SDS011;36499;46.484;13.832;2023-02-24T05:26:52;40.77;;;19.13;;
12469;SDS011;36499;46.484;13.832;2023-02-24T05:29:22;45.93;;;21.37;;
12469;SDS011;36499;46.484;13.832;2023-02-24T05:31:52;31.33;;;16.80;;
12469;SDS011;36499;46.484;13.832;2023-02-24T05:34:20;40.93;;;19.47;;
12469;SDS011;36499;46.484;13.832;2023-02-24T05:36:48;41.20;;;19.63;;
12469;SDS011;36499;46.484;13.832;2023-02-24T05:39:17;39.73;;;18.87;;
12469;SDS011;36499;46.484;13.832;2023-02-24T05:41:46;41.07;;;19.33;;
12469;SDS011;36499;46.484;13.832;2023-02-24T05:44:20;37.27;;;19.40;;
12469;SDS011;36499;46.484;13.832;2023-02-24T05:46:50;38.10;;;18.40;;
12469;SDS011;36499;46.484;13.832;2023-02-24T05:49:23;33.97;;;17.60;;
12469;SDS011;36499;46.484;13.832;2023-02-24T05:51:54;33.73;;;18.10;;
12469;SDS011;36499;46.484;13.832;2023-02-24T05:54:26;32.20;;;17.60;;
12469;SDS011;36499;46.484;13.832;2023-02-24T05:56:57;34.20;;;17.27;;
12469;SDS011;36499;46.484;13.832;2023-02-24T05:59:27;38.13;;;19.03;;
12469;SDS011;36499;46.484;13.832;2023-02-24T06:01:57;35.47;;;18.77;;
12469;SDS011;36499;46.484;13.832;2023-02-24T06:04:26;31.83;;;16.93;;
12469;SDS011;36499;46.484;13.832;2023-02-24T06:07:05;41.23;;;19.17;;
12469;SDS011;36499;46.484;13.832;2023-02-24T06:09:42;34.97;;;18.97;;
12469;SDS011;36499;46.484;13.832;2023-02-24T06:12:14;34.53;;;17.20;;
12469;SDS011;36499;46.484;13.832;2023-02-24T06:14:44;34.23;;;18.87;;
12469;SDS011;36499;46.484;13.832;2023-02-24T06:17:11;36.73;;;18.10;;
12469;SDS011;36499;46.484;13.832;2023-02-24T06:19:41;37.67;;;17.37;;
12469;SDS011;36499;46.484;13.832;2023-02-24T06:22:10;36.60;;;17.63;;
12469;SDS011;36499;46.484;13.832;2023-02-24T06:24:39;33.73;;;17.23;;
12469;SDS011;36499;46.484;13.832;2023-02-24T06:27:08;33.93;;;17.57;;
12469;SDS011;36499;46.484;13.832;2023-02-24T06:29:41;37.43;;;18.70;;
12469;SDS011;36499;46.484;13.832;2023-02-24T06:32:13;40.23;;;20.80;;
12469;SDS011;36499;46.484;13.832;2023-02-24T06:34:41;51.13;;;25.70;;
12469;SDS011;36499;46.484;13.832;2023-02-24T06:37:10;43.97;;;23.60;;
12469;SDS011;36499;46.484;13.832;2023-02-24T06:39:39;40.93;;;19.63;;
12469;SDS011;36499;46.484;13.832;2023-02-24T06:42:07;41.30;;;18.57;;
12469;SDS011;36499;46.484;13.832;2023-02-24T06:44:36;38.07;;;18.80;;
12469;SDS011;36499;46.484;13.832;2023-02-24T06:47:09;37.33;;;18.43;;
12469;SDS011;36499;46.484;13.832;2023-02-24T06:49:38;34.27;;;18.13;;
12469;SDS011;36499;46.484;13.832;2023-02-24T06:52:06;35.33;;;17.67;;
12469;SDS011;36499;46.484;13.832;2023-02-24T06:54:35;40.50;;;19.10;;
12469;SDS011;36499;46.484;13.832;2023-02-24T06:57:02;34.50;;;17.73;;
12469;SDS011;36499;46.484;13.832;2023-02-24T06:59:29;35.17;;;19.33;;
12469;SDS011;36499;46.484;13.832;2023-02-24T07:01:57;34.60;;;18.03;;
12469;SDS011;36499;46.484;13.832;2023-02-24T07:04:28;34.77;;;17.63;;
12469;SDS011;36499;46.484;13.832;2023-02-24T07:07:07;37.10;;;18.43;;
12469;SDS011;36499;46.484;13.832;2023-02-24T07:09:38;35.63;;;18.27;;
12469;SDS011;36499;46.484;13.832;2023-02-24T07:12:06;35.80;;;19.07;;
12469;SDS011;36499;46.484;13.832;2023-02-24T07:14:35;38.70;;;19.57;;
12469;SDS011;36499;46.484;13.832;2023-02-24T07:17:02;34.83;;;18.43;;
12469;SDS011;36499;46.484;13.832;2023-02-24T07:19:31;34.97;;;18.70;;
12469;SDS011;36499;46.484;13.832;2023-02-24T07:21:58;36.57;;;18.63;;
12469;SDS011;36499;46.484;13.832;2023-02-24T07:24:28;37.93;;;19.17;;
12469;SDS011;36499;46.484;13.832;2023-02-24T07:27:01;42.50;;;21.67;;
12469;SDS011;36499;46.484;13.832;2023-02-24T07:29:31;39.80;;;19.90;;
12469;SDS011;36499;46.484;13.832;2023-02-24T07:32:00;35.80;;;18.87;;
12469;SDS011;36499;46.484;13.832;2023-02-24T07:34:31;34.43;;;19.37;;
12469;SDS011;36499;46.484;13.832;2023-02-24T07:37:03;36.80;;;19.93;;
12469;SDS011;36499;46.484;13.832;2023-02-24T07:39:32;37.97;;;20.10;;
12469;SDS011;36499;46.484;13.832;2023-02-24T07:42:00;45.17;;;22.33;;
12469;SDS011;36499;46.484;13.832;2023-02-24T07:44:28;42.97;;;20.97;;
12469;SDS011;36499;46.484;13.832;2023-02-24T07:46:55;46.90;;;22.37;;
12469;SDS011;36499;46.484;13.832;2023-02-24T07:49:23;45.87;;;23.13;;
12469;SDS011;36499;46.484;13.832;2023-02-24T07:51:55;42.53;;;20.90;;
12469;SDS011;36499;46.484;13.832;2023-02-24T07:54:23;42.47;;;21.63;;
12469;SDS011;36499;46.484;13.832;2023-02-24T07:56:54;45.77;;;22.37;;
12469;SDS011;36499;46.484;13.832;2023-02-24T07:59:23;48.03;;;21.90;;
12469;SDS011;36499;46.484;13.832;2023-02-24T08:01:52;39.97;;;21.43;;
12469;SDS011;36499;46.484;13.832;2023-02-24T08:04:21;44.60;;;22.63;;
12469;SDS011;36499;46.484;13.832;2023-02-24T08:06:52;45.67;;;22.73;;
12469;SDS011;36499;46.484;13.832;2023-02-24T08:09:27;49.37;;;24.50;;
12469;SDS011;36499;46.484;13.832;2023-02-24T08:12:14;43.97;;;22.60;;
12469;SDS011;36499;46.484;13.832;2023-02-24T08:14:45;44.70;;;22.60;;
12469;SDS011;36499;46.484;13.832;2023-02-24T08:17:15;47.30;;;25.07;;
12469;SDS011;36499;46.484;13.832;2023-02-24T08:19:45;47.43;;;26.10;;
12469;SDS011;36499;46.484;13.832;2023-02-24T08:22:15;42.30;;;21.00;;
12469;SDS011;36499;46.484;13.832;2023-02-24T08:24:49;36.80;;;20.37;;
12469;SDS011;36499;46.484;13.832;2023-02-24T08:27:19;34.20;;;18.57;;
12469;SDS011;36499;46.484;13.832;2023-02-24T08:29:51;36.03;;;19.70;;
12469;SDS011;36499;46.484;13.832;2023-02-24T08:32:24;36.77;;;20.50;;
12469;SDS011;36499;46.484;13.832;2023-02-24T08:34:57;35.40;;;19.00;;
12469;SDS011;36499;46.484;13.832;2023-02-24T08:37:29;34.30;;;19.83;;
12469;SDS011;36499;46.484;13.832;2023-02-24T08:40:04;30.53;;;18.17;;
12469;SDS011;36499;46.484;13.832;2023-02-24T08:42:53;37.43;;;18.83;;
12469;SDS011;36499;46.484;13.832;2023-02-24T08:45:23;36.50;;;18.90;;
12469;SDS011;36499;46.484;13.832;2023-02-24T08:47:52;33.97;;;18.93;;
12469;SDS011;36499;46.484;13.832;2023-02-24T08:50:24;40.47;;;20.57;;
12469;SDS011;36499;46.484;13.832;2023-02-24T08:52:56;40.93;;;21.07;;
12469;SDS011;36499;46.484;13.832;2023-02-24T08:55:25;41.73;;;22.07;;
12469;SDS011;36499;46.484;13.832;2023-02-24T08:57:57;40.77;;;22.17;;
12469;SDS011;36499;46.484;13.832;2023-02-24T09:00:25;45.20;;;22.73;;
12469;SDS011;36499;46.484;13.832;2023-02-24T09:03:12;40.87;;;20.97;;
12469;SDS011;36499;46.484;13.832;2023-02-24T09:05:54;45.90;;;23.97;;
12469;SDS011;36499;46.484;13.832;2023-02-24T09:08:30;40.27;;;22.07;;
12469;SDS011;36499;46.484;13.832;2023-02-24T09:10:59;41.43;;;21.17;;
12469;SDS011;36499;46.484;13.832;2023-02-24T09:13:31;38.03;;;21.37;;
12469;SDS011;36499;46.484;13.832;2023-02-24T09:16:00;35.20;;;20.17;;
12469;SDS011;36499;46.484;13.832;2023-02-24T09:18:29;32.23;;;19.23;;
12469;SDS011;36499;46.484;13.832;2023-02-24T09:21:12;36.40;;;20.23;;
12469;SDS011;36499;46.484;13.832;2023-02-24T09:23:58;30.67;;;18.20;;
12469;SDS011;36499;46.484;13.832;2023-02-24T09:26:31;34.77;;;19.33;;
12469;SDS011;36499;46.484;13.832;2023-02-24T09:29:07;36.43;;;19.93;;
12469;SDS011;36499;46.484;13.832;2023-02-24T09:31:57;34.30;;;19.13;;
12469;SDS011;36499;46.484;13.832;2023-02-24T09:34:29;34.33;;;19.03;;
12469;SDS011;36499;46.484;13.832;2023-02-24T09:36:58;29.53;;;18.43;;
12469;SDS011;36499;46.484;13.832;2023-02-24T09:39:31;30.50;;;19.07;;
12469;SDS011;36499;46.484;13.832;2023-02-24T09:42:21;33.07;;;19.87;;
12469;SDS011;36499;46.484;13.832;2023-02-24T09:45:12;37.63;;;20.73;;
12469;SDS011;36499;46.484;13.832;2023-02-24T09:47:57;34.40;;;20.27;;
12469;SDS011;36499;46.484;13.832;2023-02-24T09:50:34;39.40;;;21.87;;
12469;SDS011;36499;46.484;13.832;2023-02-24T09:53:12;41.37;;;22.33;;
12469;SDS011;36499;46.484;13.832;2023-02-24T09:55:46;36.73;;;21.93;;
12469;SDS011;36499;46.484;13.832;2023-02-24T09:58:31;34.90;;;21.10;;
12469;SDS011;36499;46.484;13.832;2023-02-24T10:04:13;32.23;;;19.17;;
12469;SDS011;36499;46.484;13.832;2023-02-24T10:07:02;37.03;;;20.50;;
12469;SDS011;36499;46.484;13.832;2023-02-24T10:09:36;37.10;;;20.97;;
12469;SDS011;36499;46.484;13.832;2023-02-24T10:12:13;36.60;;;20.93;;
12469;SDS011;36499;46.484;13.832;2023-02-24T10:14:49;33.30;;;20.93;;
12469;SDS011;36499;46.484;13.832;2023-02-24T10:17:42;32.87;;;20.30;;
12469;SDS011;36499;46.484;13.832;2023-02-24T10:20:19;34.73;;;19.50;;
12469;SDS011;36499;46.484;13.832;2023-02-24T10:23:04;31.53;;;18.07;;
12469;SDS011;36499;46.484;13.832;2023-02-24T10:25:41;35.20;;;19.53;;
12469;SDS011;36499;46.484;13.832;2023-02-24T10:28:21;32.07;;;19.30;;
12469;SDS011;36499;46.484;13.832;2023-02-24T10:31:02;34.13;;;19.53;;
12469;SDS011;36499;46.484;13.832;2023-02-24T10:33:48;30.23;;;19.23;;
12469;SDS011;36499;46.484;13.832;2023-02-24T10:36:21;31.27;;;18.67;;
12469;SDS011;36499;46.484;13.832;2023-02-24T10:38:54;44.13;;;30.03;;
12469;SDS011;36499;46.484;13.832;2023-02-24T10:41:28;34.40;;;20.47;;
12469;SDS011;36499;46.484;13.832;2023-02-24T10:44:03;34.50;;;19.80;;
12469;SDS011;36499;46.484;13.832;2023-02-24T10:46:33;37.37;;;20.57;;
12469;SDS011;36499;46.484;13.832;2023-02-24T10:49:00;32.07;;;19.27;;
12469;SDS011;36499;46.484;13.832;2023-02-24T10:51:35;35.17;;;20.53;;
12469;SDS011;36499;46.484;13.832;2023-02-24T10:54:06;36.07;;;21.30;;
12469;SDS011;36499;46.484;13.832;2023-02-24T10:56:58;35.00;;;21.40;;
12469;SDS011;36499;46.484;13.832;2023-02-24T10:59:48;38.33;;;22.97;;
12469;SDS011;36499;46.484;13.832;2023-02-24T11:02:34;41.17;;;23.70;;
12469;SDS011;36499;46.484;13.832;2023-02-24T11:05:21;38.23;;;22.13;;
12469;SDS011;36499;46.484;13.832;2023-02-24T11:08:06;44.00;;;24.07;;
12469;SDS011;36499;46.484;13.832;2023-02-24T11:11:00;43.57;;;25.80;;
12469;SDS011;36499;46.484;13.832;2023-02-24T11:13:46;49.00;;;25.03;;
12469;SDS011;36499;46.484;13.832;2023-02-24T11:16:46;50.37;;;27.23;;
12469;SDS011;36499;46.484;13.832;2023-02-24T11:19:46;44.17;;;25.43;;
12469;SDS011;36499;46.484;13.832;2023-02-24T11:22:22;47.03;;;25.97;;
12469;SDS011;36499;46.484;13.832;2023-02-24T11:24:56;47.47;;;26.67;;
12469;SDS011;36499;46.484;13.832;2023-02-24T11:27:30;43.80;;;25.30;;
12469;SDS011;36499;46.484;13.832;2023-02-24T11:30:14;50.20;;;26.07;;
12469;SDS011;36499;46.484;13.832;2023-02-24T11:33:05;50.43;;;27.73;;
12469;SDS011;36499;46.484;13.832;2023-02-24T11:35:52;50.13;;;28.10;;
12469;SDS011;36499;46.484;13.832;2023-02-24T11:38:36;52.17;;;29.17;;
12469;SDS011;36499;46.484;13.832;2023-02-24T11:41:12;53.07;;;29.23;;
12469;SDS011;36499;46.484;13.832;2023-02-24T11:43:53;56.10;;;31.47;;
12469;SDS011;36499;46.484;13.832;2023-02-24T11:46:32;46.47;;;27.70;;
12469;SDS011;36499;46.484;13.832;2023-02-24T11:49:07;53.30;;;29.37;;
12469;SDS011;36499;46.484;13.832;2023-02-24T11:51:51;52.13;;;27.33;;
12469;SDS011;36499;46.484;13.832;2023-02-24T11:54:21;55.93;;;29.10;;
12469;SDS011;36499;46.484;13.832;2023-02-24T11:56:51;52.10;;;29.80;;
12469;SDS011;36499;46.484;13.832;2023-02-24T11:59:27;49.30;;;28.20;;
12469;SDS011;36499;46.484;13.832;2023-02-24T12:02:03;48.37;;;27.37;;
12469;SDS011;36499;46.484;13.832;2023-02-24T12:04:48;60.97;;;32.40;;
12469;SDS011;36499;46.484;13.832;2023-02-24T12:07:27;55.73;;;30.70;;
12469;SDS011;36499;46.484;13.832;2023-02-24T12:10:03;52.40;;;29.60;;
12469;SDS011;36499;46.484;13.832;2023-02-24T12:12:40;57.70;;;30.23;;
12469;SDS011;36499;46.484;13.832;2023-02-24T12:15:16;50.00;;;29.47;;
12469;SDS011;36499;46.484;13.832;2023-02-24T12:17:52;55.23;;;31.30;;
12469;SDS011;36499;46.484;13.832;2023-02-24T12:20:32;52.10;;;29.57;;
12469;SDS011;36499;46.484;13.832;2023-02-24T12:23:09;57.07;;;29.17;;
12469;SDS011;36499;46.484;13.832;2023-02-24T12:25:48;52.43;;;29.87;;
12469;SDS011;36499;46.484;13.832;2023-02-24T12:28:37;54.00;;;29.27;;
12469;SDS011;36499;46.484;13.832;2023-02-24T12:31:23;51.77;;;30.57;;
12469;SDS011;36499;46.484;13.832;2023-02-24T12:34:04;51.67;;;29.67;;
12469;SDS011;36499;46.484;13.832;2023-02-24T12:36:47;56.03;;;31.47;;
12469;SDS011;36499;46.484;13.832;2023-02-24T12:39:43;51.77;;;29.47;;
12469;SDS011;36499;46.484;13.832;2023-02-24T12:42:25;47.23;;;27.80;;
12469;SDS011;36499;46.484;13.832;2023-02-24T12:45:09;44.70;;;26.93;;
12469;SDS011;36499;46.484;13.832;2023-02-24T12:47:48;43.30;;;25.80;;
12469;SDS011;36499;46.484;13.832;2023-02-24T12:50:34;41.73;;;25.57;;
12469;SDS011;36499;46.484;13.832;2023-02-24T12:53:16;51.53;;;28.43;;
12469;SDS011;36499;46.484;13.832;2023-02-24T12:55:52;45.60;;;26.73;;
12469;SDS011;36499;46.484;13.832;2023-02-24T12:58:32;41.50;;;25.90;;
12469;SDS011;36499;46.484;13.832;2023-02-24T13:01:06;49.47;;;27.50;;
12469;SDS011;36499;46.484;13.832;2023-02-24T13:03:49;46.87;;;27.73;;
12469;SDS011;36499;46.484;13.832;2023-02-24T13:06:46;42.70;;;25.43;;
12469;SDS011;36499;46.484;13.832;2023-02-24T13:09:30;44.43;;;25.33;;
12469;SDS011;36499;46.484;13.832;2023-02-24T13:12:08;44.90;;;25.27;;
12469;SDS011;36499;46.484;13.832;2023-02-24T13:14:44;43.93;;;25.97;;
12469;SDS011;36499;46.484;13.832;2023-02-24T13:17:17;39.67;;;24.87;;
12469;SDS011;36499;46.484;13.832;2023-02-24T13:19:48;54.00;;;31.67;;
12469;SDS011;36499;46.484;13.832;2023-02-24T13:22:20;42.60;;;24.87;;
12469;SDS011;36499;46.484;13.832;2023-02-24T13:25:16;45.13;;;24.90;;
12469;SDS011;36499;46.484;13.832;2023-02-24T13:27:57;43.40;;;24.20;;
12469;SDS011;36499;46.484;13.832;2023-02-24T13:30:35;39.30;;;24.07;;
12469;SDS011;36499;46.484;13.832;2023-02-24T13:33:19;41.83;;;24.10;;
12469;SDS011;36499;46.484;13.832;2023-02-24T13:36:03;39.27;;;23.73;;
12469;SDS011;36499;46.484;13.832;2023-02-24T13:38:39;44.00;;;25.03;;
12469;SDS011;36499;46.484;13.832;2023-02-24T13:41:21;37.97;;;23.83;;
12469;SDS011;36499;46.484;13.832;2023-02-24T13:44:23;40.80;;;23.77;;
12469;SDS011;36499;46.484;13.832;2023-02-24T13:50:18;39.93;;;23.73;;
12469;SDS011;36499;46.484;13.832;2023-02-24T13:52:54;34.43;;;20.67;;
12469;SDS011;36499;46.484;13.832;2023-02-24T13:55:46;35.23;;;22.07;;
12469;SDS011;36499;46.484;13.832;2023-02-24T13:58:48;30.37;;;18.93;;
12469;SDS011;36499;46.484;13.832;2023-02-24T14:01:43;35.07;;;19.67;;
12469;SDS011;36499;46.484;13.832;2023-02-24T14:04:15;38.27;;;22.87;;
12469;SDS011;36499;46.484;13.832;2023-02-24T14:06:48;33.33;;;19.20;;
12469;SDS011;36499;46.484;13.832;2023-02-24T14:09:20;32.83;;;19.30;;
12469;SDS011;36499;46.484;13.832;2023-02-24T14:11:54;32.90;;;19.43;;
12469;SDS011;36499;46.484;13.832;2023-02-24T14:14:27;33.57;;;19.97;;
12469;SDS011;36499;46.484;13.832;2023-02-24T14:16:56;39.10;;;20.43;;
12469;SDS011;36499;46.484;13.832;2023-02-24T14:19:24;32.27;;;18.90;;
12469;SDS011;36499;46.484;13.832;2023-02-24T14:21:52;37.53;;;21.50;;
12469;SDS011;36499;46.484;13.832;2023-02-24T14:24:21;34.90;;;20.40;;
12469;SDS011;36499;46.484;13.832;2023-02-24T14:26:51;34.77;;;20.70;;
12469;SDS011;36499;46.484;13.832;2023-02-24T14:29:22;25.33;;;15.87;;
12469;SDS011;36499;46.484;13.832;2023-02-24T14:31:57;33.37;;;19.47;;
12469;SDS011;36499;46.484;13.832;2023-02-24T14:34:25;24.93;;;16.03;;
12469;SDS011;36499;46.484;13.832;2023-02-24T14:36:56;27.80;;;17.17;;
12469;SDS011;36499;46.484;13.832;2023-02-24T14:39:29;26.07;;;15.87;;
12469;SDS011;36499;46.484;13.832;2023-02-24T14:42:09;24.87;;;14.83;;
12469;SDS011;36499;46.484;13.832;2023-02-24T14:44:40;23.50;;;13.97;;
12469;SDS011;36499;46.484;13.832;2023-02-24T14:47:13;21.53;;;13.40;;
12469;SDS011;36499;46.484;13.832;2023-02-24T14:49:50;25.97;;;14.60;;
12469;SDS011;36499;46.484;13.832;2023-02-24T14:52:23;28.63;;;17.70;;
12469;SDS011;36499;46.484;13.832;2023-02-24T14:55:01;26.70;;;16.73;;
12469;SDS011;36499;46.484;13.832;2023-02-24T14:57:33;24.63;;;14.03;;
12469;SDS011;36499;46.484;13.832;2023-02-24T15:00:08;24.23;;;13.03;;
12469;SDS011;36499;46.484;13.832;2023-02-24T15:02:49;24.53;;;13.70;;
12469;SDS011;36499;46.484;13.832;2023-02-24T15:05:27;32.17;;;16.23;;